This is the latest recevied weather packets stored in our database for station/object KI2K. If no packets are shown the sender has not sent any weather packets the latest 10 day(s).
| Time | Temp. | Humidity | Pressure | Rain* | Wind** | Luminosity | Snow |
|---|---|---|---|---|---|---|---|
| 1777957826 | 15.56° C | 88% | 1004.7 hPa | 4.83 mm | - | 0 W/m² | - |
| 1777957524 | 15.56° C | 87% | 1004.4 hPa | 4.32 mm | - | 0 W/m² | - |
| 1777957222 | 15.56° C | 86% | 1004.3 hPa | 6.1 mm | - | 0 W/m² | - |
| 1777956917 | 17.22° C | 83% | 1004 hPa | 6.6 mm | - | 0 W/m² | - |
| 1777956615 | 17.78° C | 76% | 1004 hPa | 1.78 mm | - | 0 W/m² | - |
| 1777956312 | 17.78° C | 75% | 1003.7 hPa | 0 mm | - | 0 W/m² | - |
| 1777956008 | 18.33° C | 72% | 1003.9 hPa | 0 mm | - | 0 W/m² | - |
| 1777955698 | 18.89° C | 67% | 1003.7 hPa | 0 mm | - | 0 W/m² | - |
| 1777955395 | 18.89° C | 65% | 1003.5 hPa | 0 mm | - | 0 W/m² | - |
| 1777955091 | 19.44° C | 63% | 1003.2 hPa | 0 mm | - | 0 W/m² | - |
| 1777954788 | 20° C | 59% | 1002.9 hPa | 0 mm | - | 0 W/m² | - |
| 1777954485 | 20° C | 59% | 1003.1 hPa | 0 mm | - | 0 W/m² | - |
| 1777954183 | 20° C | 59% | 1003.1 hPa | 0 mm | - | 0 W/m² | - |
| 1777953880 | 20° C | 59% | 1002.9 hPa | 0 mm | - | 0 W/m² | - |
| 1777953577 | 20° C | 59% | 1002.9 hPa | 0 mm | - | 0 W/m² | - |
| 1777953273 | 20° C | 59% | 1003.1 hPa | 0 mm | - | 0 W/m² | - |
| 1777952970 | 20° C | 59% | 1002.9 hPa | 0 mm | - | 0 W/m² | - |
| 1777952666 | 20° C | 59% | 1003 hPa | 0 mm | - | 0 W/m² | - |
| 1777952364 | 20° C | 60% | 1003 hPa | 0 mm | - | 0 W/m² | - |
| 1777952060 | 20° C | 59% | 1003.2 hPa | 0 mm | - | 0 W/m² | - |
| 1777951758 | 20° C | 59% | 1003.2 hPa | 0 mm | - | 0 W/m² | - |
| 1777951455 | 20° C | 59% | 1002.9 hPa | 0 mm | - | 0 W/m² | - |
| 1777951152 | 20° C | 60% | 1003.2 hPa | 0 mm | - | 0 W/m² | - |
| 1777950848 | 20° C | 59% | 1003.2 hPa | 0 mm | - | 0 W/m² | - |
| 1777950546 | 20° C | 59% | 1003.3 hPa | 0 mm | - | 0 W/m² | - |
* Rain latest hour (hover to see other rain measurements)
** Current wind speed in m/s (hover to see current wind gust speed)